Time;durP1;ratioP1;P1;durP2;ratioP2;P2;SDS_P1;SDS_P2;PMS_P1;PMS_P2;Temp;Humidity;BMP_temperature;BMP_pressure;BME280_temperature;BME280_humidity;BME280_pressure;Samples;Min_cycle;Max_cycle;Signal;HPM_P1;HPM_P2
2022/07/04 00:01:15;;;;;;;2.70;1.20;;;17.30;99.90;;;;;;5077214;28;20566;-82
2022/07/04 00:03:42;;;;;;;3.23;1.20;;;17.30;99.90;;;;;;5072297;28;20453;-83
2022/07/04 00:06:09;;;;;;;2.93;1.13;;;17.20;99.90;;;;;;5078861;28;20541;-83
2022/07/04 00:08:37;;;;;;;3.60;1.10;;;17.20;99.90;;;;;;5078746;28;20458;-81
2022/07/04 00:11:04;;;;;;;3.80;1.07;;;17.20;99.90;;;;;;5078577;28;20554;-82
2022/07/04 00:13:31;;;;;;;2.10;0.80;;;17.10;99.90;;;;;;5071457;28;20488;-82
2022/07/04 00:15:58;;;;;;;2.70;0.80;;;17.10;99.90;;;;;;5080098;28;20452;-80
2022/07/04 00:18:25;;;;;;;3.30;1.00;;;17.10;99.90;;;;;;5078983;28;20472;-82
2022/07/04 00:20:53;;;;;;;2.20;0.90;;;17.10;99.90;;;;;;5079166;28;20565;-82
2022/07/04 00:23:20;;;;;;;4.00;0.90;;;17.00;99.90;;;;;;5072252;28;20840;-82
2022/07/04 00:25:48;;;;;;;3.23;0.90;;;17.00;99.90;;;;;;5079335;28;20493;-83
2022/07/04 00:28:15;;;;;;;2.47;0.80;;;17.00;99.90;;;;;;5079518;28;20450;-83
2022/07/04 00:30:42;;;;;;;4.80;1.13;;;16.90;99.90;;;;;;5080998;28;20475;-83
2022/07/04 00:33:12;;;;;;;2.77;1.10;;;16.90;99.90;;;;;;5081934;28;20876;-84
2022/07/04 00:35:39;;;;;;;3.90;1.33;;;16.80;99.90;;;;;;5093435;28;20425;-82
2022/07/04 00:38:06;;;;;;;3.07;1.00;;;16.80;99.90;;;;;;5095201;28;20454;-82
2022/07/04 00:40:32;;;;;;;3.00;1.00;;;16.80;99.90;;;;;;5079554;28;20543;-83
2022/07/04 00:43:03;;;;;;;2.23;0.90;;;16.70;99.90;;;;;;5070362;28;20546;-81
2022/07/04 00:45:30;;;;;;;3.00;1.30;;;16.70;99.90;;;;;;5079003;28;20466;-84
2022/07/04 00:47:57;;;;;;;2.80;1.20;;;16.70;99.90;;;;;;5079366;28;20458;-84
2022/07/04 00:50:25;;;;;;;2.30;0.90;;;16.70;99.90;;;;;;5087565;28;20499;-82
2022/07/04 00:52:52;;;;;;;2.13;0.87;;;16.70;99.90;;;;;;5088867;28;20494;-82
2022/07/04 00:55:20;;;;;;;4.40;1.07;;;16.70;99.90;;;;;;5087104;28;20453;-80
2022/07/04 00:57:47;;;;;;;2.63;0.90;;;16.70;99.90;;;;;;5070989;28;20469;-80
2022/07/04 01:00:17;;;;;;;3.67;1.77;;;16.60;99.90;;;;;;5056552;28;20555;-81
2022/07/04 01:02:44;;;;;;;3.00;1.10;;;16.60;99.90;;;;;;5075303;28;20449;-81
2022/07/04 01:05:11;;;;;;;3.30;0.90;;;16.60;99.90;;;;;;5062713;28;20475;-82
2022/07/04 01:07:38;;;;;;;3.60;1.10;;;16.60;99.90;;;;;;5075272;28;20495;-80
2022/07/04 01:10:06;;;;;;;3.50;1.20;;;16.70;99.90;;;;;;5075762;28;20503;-83
2022/07/04 01:12:32;;;;;;;2.80;1.10;;;16.70;99.90;;;;;;5069576;28;20527;-83
2022/07/04 01:14:59;;;;;;;3.57;1.33;;;16.70;99.90;;;;;;5075033;28;20537;-80
2022/07/04 01:17:28;;;;;;;2.87;1.13;;;16.70;99.90;;;;;;5068998;28;20531;-80
2022/07/04 01:19:54;;;;;;;4.43;1.30;;;16.70;99.90;;;;;;5076344;28;20541;-79
2022/07/04 01:22:23;;;;;;;3.23;1.10;;;16.60;99.90;;;;;;5071007;28;20447;-81
2022/07/04 01:24:50;;;;;;;3.53;1.13;;;16.60;99.90;;;;;;5067732;28;20523;-80
2022/07/04 01:27:17;;;;;;;3.60;1.30;;;16.60;99.90;;;;;;5070851;28;20531;-80
2022/07/04 01:29:44;;;;;;;6.60;1.30;;;16.60;99.90;;;;;;5056395;28;20444;-80
2022/07/04 01:32:12;;;;;;;3.50;1.20;;;16.60;99.90;;;;;;5070255;28;20454;-81
2022/07/04 01:34:39;;;;;;;3.30;1.20;;;16.60;99.90;;;;;;5075559;28;20990;-80
2022/07/04 01:37:07;;;;;;;4.43;1.00;;;16.50;99.90;;;;;;5073843;28;20459;-80
2022/07/04 01:39:35;;;;;;;4.17;1.53;;;16.50;99.90;;;;;;5076417;28;20444;-80
2022/07/04 01:42:02;;;;;;;3.43;1.10;;;16.50;99.90;;;;;;5075899;28;20550;-81
2022/07/04 01:44:28;;;;;;;4.40;1.60;;;16.40;99.90;;;;;;5075428;28;20530;-80
2022/07/04 01:46:55;;;;;;;4.53;1.10;;;16.40;99.90;;;;;;5076030;28;20527;-80
2022/07/04 01:49:22;;;;;;;2.23;1.00;;;16.40;99.90;;;;;;5075881;28;20538;-80
2022/07/04 01:51:51;;;;;;;5.70;1.47;;;16.30;99.90;;;;;;5068448;28;20575;-79
2022/07/04 01:54:19;;;;;;;4.67;1.30;;;16.40;99.90;;;;;;5071416;28;20554;-80
2022/07/04 01:56:47;;;;;;;2.63;1.17;;;16.30;99.90;;;;;;5068173;28;20451;-79
2022/07/04 01:59:14;;;;;;;3.40;1.23;;;16.30;99.90;;;;;;5056166;28;20444;-80
2022/07/04 02:01:40;;;;;;;4.00;1.47;;;16.30;99.90;;;;;;5059301;28;20887;-80
2022/07/04 02:04:08;;;;;;;4.90;1.70;;;16.30;99.90;;;;;;5061574;28;20478;-81
2022/07/04 02:06:36;;;;;;;3.80;1.47;;;16.30;99.90;;;;;;5074445;28;20201;-79
2022/07/04 02:09:19;;;;;;;3.33;1.17;;;16.30;99.90;;;;;;5072410;28;20490;-80
2022/07/04 02:14:33;;;;;;;2.70;1.13;;;16.20;99.90;;;;;;5076280;28;20437;-82
2022/07/04 02:17:00;;;;;;;3.13;1.47;;;16.20;99.90;;;;;;5073972;28;20537;-80
2022/07/04 02:19:27;;;;;;;2.70;1.20;;;16.10;99.90;;;;;;5075987;28;20529;-81
2022/07/04 02:21:54;;;;;;;3.00;1.30;;;16.20;99.90;;;;;;5072827;28;20513;-81
2022/07/04 02:24:21;;;;;;;3.40;1.63;;;16.10;99.90;;;;;;5075956;28;20979;-81
2022/07/04 02:26:49;;;;;;;3.50;1.37;;;16.10;99.90;;;;;;5076878;28;20518;-83
2022/07/04 02:29:16;;;;;;;9.13;1.73;;;16.10;99.90;;;;;;5077845;28;20480;-80
2022/07/04 02:31:43;;;;;;;3.90;1.80;;;16.10;99.90;;;;;;5076567;28;20916;-82
2022/07/04 02:34:10;;;;;;;5.63;2.10;;;16.00;99.90;;;;;;5076826;28;20573;-80
2022/07/04 02:36:37;;;;;;;3.37;1.30;;;16.10;99.90;;;;;;5071260;28;20453;-80
2022/07/04 02:39:05;;;;;;;3.47;1.50;;;16.00;99.90;;;;;;5082884;28;20507;-79
2022/07/04 02:41:32;;;;;;;3.57;1.80;;;16.00;99.90;;;;;;5071629;28;20498;-82
2022/07/04 02:44:01;;;;;;;4.93;1.90;;;16.00;99.90;;;;;;5075474;28;20482;-80
2022/07/04 02:46:28;;;;;;;5.73;1.90;;;15.90;99.90;;;;;;5069237;28;20541;-80
2022/07/04 02:48:55;;;;;;;3.37;1.40;;;15.90;99.90;;;;;;5076823;28;20641;-82
2022/07/04 02:51:22;;;;;;;3.30;2.00;;;15.90;99.90;;;;;;5075815;28;20569;-79
2022/07/04 02:53:48;;;;;;;3.60;1.50;;;15.80;99.90;;;;;;5075054;28;20492;-81
2022/07/04 02:56:15;;;;;;;4.90;1.80;;;15.80;99.90;;;;;;5076290;28;20469;-80
2022/07/04 02:58:42;;;;;;;4.30;1.80;;;15.80;99.90;;;;;;5056309;28;20932;-81
2022/07/04 03:01:12;;;;;;;3.27;1.67;;;15.80;99.90;;;;;;5065833;28;20506;-82
2022/07/04 03:03:39;;;;;;;4.27;1.70;;;15.80;99.90;;;;;;5074667;28;20452;-81
2022/07/04 03:06:09;;;;;;;4.27;1.70;;;15.70;99.90;;;;;;5076260;28;20465;-81
2022/07/04 03:08:36;;;;;;;4.30;1.73;;;15.70;99.90;;;;;;5075922;28;20465;-81
2022/07/04 03:11:03;;;;;;;2.77;1.63;;;15.70;99.90;;;;;;5075933;28;20574;-80
2022/07/04 03:13:30;;;;;;;2.77;1.67;;;15.70;99.90;;;;;;5074645;28;20486;-81
2022/07/04 03:15:57;;;;;;;4.33;1.80;;;15.70;99.90;;;;;;5076118;28;20534;-81
2022/07/04 03:18:25;;;;;;;3.87;1.90;;;15.60;99.90;;;;;;5077094;28;20990;-81
2022/07/04 03:20:52;;;;;;;4.10;2.33;;;15.60;99.90;;;;;;5078965;28;20521;-81
2022/07/04 03:23:19;;;;;;;3.37;1.87;;;15.60;99.90;;;;;;5078376;28;20545;-80
2022/07/04 03:25:46;;;;;;;6.77;2.00;;;15.60;99.90;;;;;;5079094;28;20545;-80
2022/07/04 03:28:12;;;;;;;5.40;2.13;;;15.60;99.90;;;;;;5078338;28;20483;-83
2022/07/04 03:30:39;;;;;;;3.93;2.20;;;15.50;99.90;;;;;;5068438;28;20484;-83
2022/07/04 03:33:06;;;;;;;3.33;1.60;;;15.60;99.90;;;;;;5079119;28;20501;-83
2022/07/04 03:35:34;;;;;;;6.70;2.03;;;15.50;99.90;;;;;;5079521;28;20581;-81
2022/07/04 03:38:01;;;;;;;4.53;2.20;;;15.50;99.90;;;;;;5078921;28;20460;-82
2022/07/04 03:40:30;;;;;;;6.30;2.30;;;15.50;99.90;;;;;;5077669;28;20561;-83
2022/07/04 03:42:57;;;;;;;2.90;1.80;;;15.50;99.90;;;;;;5077923;28;20460;-82
2022/07/04 03:45:25;;;;;;;5.53;1.80;;;15.50;99.90;;;;;;5078202;28;20541;-82
2022/07/04 03:47:52;;;;;;;5.70;2.47;;;15.50;99.90;;;;;;5077920;28;20544;-83
2022/07/04 03:50:19;;;;;;;2.80;1.80;;;15.50;99.90;;;;;;5077695;28;20564;-83
2022/07/04 03:52:47;;;;;;;4.20;1.80;;;15.50;99.90;;;;;;5077594;28;20455;-82
2022/07/04 03:55:14;;;;;;;3.37;1.93;;;15.50;99.90;;;;;;5078003;28;20455;-80
2022/07/04 03:57:41;;;;;;;3.47;2.30;;;15.50;99.90;;;;;;5061014;28;20544;-81
2022/07/04 04:00:09;;;;;;;4.30;2.10;;;15.50;99.90;;;;;;5074879;28;20501;-82
2022/07/04 04:02:36;;;;;;;5.13;2.57;;;15.50;99.90;;;;;;5076464;28;20466;-80
2022/07/04 04:07:50;;;;;;;4.13;2.40;;;15.50;99.90;;;;;;5072486;28;20504;-81
2022/07/04 04:10:17;;;;;;;2.27;1.17;;;15.60;99.90;;;;;;5061619;28;20548;-80
2022/07/04 04:12:46;;;;;;;7.03;2.70;;;16.10;99.90;;;;;;5075213;28;20451;-81
2022/07/04 04:15:13;;;;;;;4.80;2.10;;;16.20;99.90;;;;;;5082330;28;20451;-80
2022/07/04 04:17:40;;;;;;;3.33;2.50;;;16.40;99.90;;;;;;5073289;28;20452;-84
2022/07/04 04:20:09;;;;;;;5.17;1.70;;;16.60;99.90;;;;;;5082779;28;20486;-84
2022/07/04 04:22:36;;;;;;;5.67;2.47;;;16.70;99.90;;;;;;5082771;28;20514;-85
2022/07/04 04:25:05;;;;;;;7.27;2.80;;;16.80;99.90;;;;;;5081490;28;20442;-83
2022/07/04 04:27:32;;;;;;;4.80;2.40;;;16.90;99.90;;;;;;5082218;28;20457;-82
2022/07/04 04:29:59;;;;;;;5.80;2.60;;;16.90;99.90;;;;;;5074075;28;20488;-81
2022/07/04 04:32:26;;;;;;;5.63;2.53;;;16.90;99.90;;;;;;5079804;28;21016;-81
2022/07/04 04:34:53;;;;;;;6.50;3.17;;;16.90;99.90;;;;;;5076592;28;20572;-81
2022/07/04 04:37:20;;;;;;;7.47;2.80;;;16.90;99.90;;;;;;5078881;28;20533;-80
2022/07/04 04:39:47;;;;;;;4.63;2.77;;;16.90;99.90;;;;;;5070925;28;20528;-80
2022/07/04 04:42:15;;;;;;;7.43;2.97;;;16.90;99.90;;;;;;5077532;28;20501;-79
2022/07/04 04:44:42;;;;;;;9.30;3.57;;;16.90;99.90;;;;;;5064950;28;20536;-80
2022/07/04 04:47:08;;;;;;;5.60;3.33;;;16.90;99.90;;;;;;5068815;28;20482;-79
2022/07/04 04:49:35;;;;;;;8.10;3.20;;;16.90;99.90;;;;;;5075742;28;20546;-79
2022/07/04 04:52:02;;;;;;;9.67;3.70;;;16.80;99.90;;;;;;5077133;28;20549;-82
2022/07/04 04:54:29;;;;;;;8.07;3.23;;;16.80;99.90;;;;;;5075990;28;20483;-79
2022/07/04 04:56:56;;;;;;;7.27;2.93;;;16.90;99.90;;;;;;5077906;28;20462;-82
2022/07/04 04:59:24;;;;;;;6.10;3.00;;;16.80;99.90;;;;;;5076597;28;20482;-80
2022/07/04 05:01:51;;;;;;;5.97;3.00;;;16.80;99.90;;;;;;5077226;28;20513;-79
2022/07/04 05:04:18;;;;;;;5.20;3.33;;;16.90;99.90;;;;;;5076646;28;20481;-82
2022/07/04 05:06:45;;;;;;;6.87;3.27;;;16.90;99.90;;;;;;5077185;28;20529;-82
2022/07/04 05:09:12;;;;;;;6.27;3.23;;;17.00;99.90;;;;;;5077768;28;20479;-79
2022/07/04 05:11:38;;;;;;;6.13;3.43;;;17.00;99.90;;;;;;5076484;28;20509;-79
2022/07/04 05:14:05;;;;;;;7.70;4.03;;;17.00;99.90;;;;;;5067384;28;20487;-80
2022/07/04 05:16:34;;;;;;;6.57;3.80;;;17.00;99.90;;;;;;5070603;28;21006;-83
2022/07/04 05:19:01;;;;;;;8.20;4.30;;;17.00;99.90;;;;;;5069796;28;20538;-81
2022/07/04 05:21:28;;;;;;;7.90;3.70;;;17.10;99.90;;;;;;5075762;28;20478;-80
2022/07/04 05:23:55;;;;;;;11.53;3.73;;;17.10;99.90;;;;;;5071162;28;20530;-81
2022/07/04 05:26:22;;;;;;;7.77;3.90;;;17.10;99.90;;;;;;5076174;28;20519;-79
2022/07/04 05:28:49;;;;;;;11.80;4.73;;;17.20;99.90;;;;;;5071497;28;20545;-80
2022/07/04 05:31:15;;;;;;;8.80;5.40;;;17.30;99.90;;;;;;5076839;28;21054;-79
2022/07/04 05:33:48;;;;;;;8.10;4.30;;;17.30;99.90;;;;;;5073335;28;20483;-80
2022/07/04 05:36:15;;;;;;;6.37;4.17;;;17.30;99.90;;;;;;5071654;28;20487;-79
2022/07/04 05:38:42;;;;;;;8.43;4.70;;;17.40;99.90;;;;;;5072501;28;20581;-80
2022/07/04 05:41:11;;;;;;;7.00;3.60;;;17.50;99.90;;;;;;5071683;28;20567;-81
2022/07/04 05:43:38;;;;;;;6.77;3.70;;;17.50;99.90;;;;;;5072883;28;20455;-79
2022/07/04 05:46:08;;;;;;;6.60;4.00;;;17.60;99.90;;;;;;5073311;28;20490;-79
2022/07/04 05:48:35;;;;;;;11.13;4.00;;;17.60;99.90;;;;;;5067480;28;20621;-79
2022/07/04 05:51:03;;;;;;;13.03;4.63;;;17.60;99.90;;;;;;5068155;28;20579;-79
2022/07/04 05:53:36;;;;;;;6.43;4.30;;;17.70;99.90;;;;;;5070043;28;20484;-79
2022/07/04 05:56:03;;;;;;;7.43;4.03;;;17.70;99.90;;;;;;5075302;28;20553;-81
2022/07/04 05:58:29;;;;;;;8.00;4.73;;;17.70;99.90;;;;;;5056747;28;20494;-78
2022/07/04 06:00:56;;;;;;;10.43;4.50;;;17.70;99.90;;;;;;5072788;28;20467;-80
2022/07/04 06:03:23;;;;;;;8.37;3.90;;;17.70;99.90;;;;;;5065818;28;20508;-79
2022/07/04 06:05:50;;;;;;;9.03;3.97;;;17.70;99.90;;;;;;5074536;28;20546;-80
2022/07/04 06:08:19;;;;;;;7.50;3.70;;;17.80;99.90;;;;;;5064674;28;20452;-81
2022/07/04 06:10:47;;;;;;;7.27;3.70;;;17.80;99.90;;;;;;5070843;28;20477;-80
2022/07/04 06:13:14;;;;;;;12.60;4.00;;;17.80;99.90;;;;;;5071352;28;20539;-79
2022/07/04 06:15:41;;;;;;;7.90;3.03;;;17.90;99.90;;;;;;5067335;28;20509;-82
2022/07/04 06:18:08;;;;;;;7.47;2.37;;;18.00;99.90;;;;;;5062553;28;20467;-80
2022/07/04 06:20:35;;;;;;;4.07;2.40;;;18.00;99.90;;;;;;5069687;28;20575;-79
2022/07/04 06:23:02;;;;;;;7.67;3.00;;;18.10;99.90;;;;;;5062281;28;21046;-80
2022/07/04 06:25:32;;;;;;;5.53;2.97;;;18.10;99.90;;;;;;5069537;28;20469;-79
2022/07/04 06:27:59;;;;;;;7.00;2.30;;;18.10;99.90;;;;;;5074441;28;20494;-80
2022/07/04 06:30:26;;;;;;;4.07;1.97;;;18.10;99.90;;;;;;5067889;28;20929;-79
2022/07/04 06:32:55;;;;;;;5.20;2.80;;;18.20;99.90;;;;;;5064360;28;20481;-81
2022/07/04 06:38:08;;;;;;;3.77;1.67;;;18.20;99.90;;;;;;5074076;28;20455;-80
2022/07/04 06:40:38;;;;;;;4.37;2.27;;;18.30;99.90;;;;;;5075209;28;21007;-78
2022/07/04 06:43:05;;;;;;;5.80;2.27;;;18.40;99.90;;;;;;5059806;28;20475;-78
2022/07/04 06:45:33;;;;;;;4.53;1.83;;;18.50;99.90;;;;;;5054813;28;20487;-79
2022/07/04 06:48:00;;;;;;;4.93;2.07;;;18.50;99.90;;;;;;5059680;28;20476;-81
2022/07/04 06:50:27;;;;;;;10.00;2.70;;;18.60;99.90;;;;;;5074915;28;20486;-79
2022/07/04 06:52:54;;;;;;;3.63;2.13;;;18.70;99.90;;;;;;5075856;28;20473;-81
2022/07/04 06:55:38;;;;;;;6.80;2.50;;;18.70;99.90;;;;;;5079562;28;20551;-81
2022/07/04 06:58:05;;;;;;;5.40;2.20;;;18.80;99.90;;;;;;5078409;28;20511;-80
2022/07/04 07:00:33;;;;;;;3.20;2.10;;;18.80;99.90;;;;;;5077268;28;20480;-85
2022/07/04 07:03:01;;;;;;;5.57;2.03;;;18.90;99.90;;;;;;5072132;28;20460;-80
2022/07/04 07:05:28;;;;;;;5.77;2.10;;;19.00;99.90;;;;;;5078223;28;20571;-80
2022/07/04 07:07:56;;;;;;;4.57;2.30;;;19.00;99.90;;;;;;5078260;28;20466;-79
2022/07/04 07:10:25;;;;;;;5.73;2.47;;;19.10;99.90;;;;;;5070464;28;21040;-81
2022/07/04 07:12:54;;;;;;;4.63;2.10;;;19.20;99.90;;;;;;5065564;28;20469;-81
2022/07/04 07:15:21;;;;;;;6.17;2.90;;;19.20;99.90;;;;;;5068380;28;20520;-79
2022/07/04 07:17:48;;;;;;;6.93;2.50;;;19.30;99.90;;;;;;5077525;28;20449;-79
2022/07/04 07:20:15;;;;;;;9.47;3.00;;;19.30;99.90;;;;;;5075199;28;20510;-82
2022/07/04 07:22:42;;;;;;;6.87;3.30;;;19.40;99.90;;;;;;5070259;28;20465;-81
2022/07/04 07:25:10;;;;;;;6.53;3.20;;;19.50;99.90;;;;;;5074250;28;20526;-79
2022/07/04 07:27:37;;;;;;;5.50;2.30;;;19.50;99.90;;;;;;5067466;28;20549;-80
2022/07/04 07:30:07;;;;;;;5.63;2.40;;;19.50;99.90;;;;;;5063232;28;20529;-80
2022/07/04 07:32:34;;;;;;;4.80;2.10;;;19.60;99.90;;;;;;5078273;28;20593;-82
2022/07/04 07:35:00;;;;;;;6.23;1.90;;;19.60;99.90;;;;;;5079300;28;20517;-81
2022/07/04 07:37:27;;;;;;;5.50;2.23;;;19.60;99.90;;;;;;5079453;28;20544;-80
2022/07/04 07:39:54;;;;;;;5.73;1.30;;;19.80;99.90;;;;;;5079469;28;21030;-81
2022/07/04 07:42:23;;;;;;;4.73;1.73;;;19.90;99.90;;;;;;5081286;28;20512;-81
2022/07/04 07:44:50;;;;;;;4.70;1.50;;;20.00;99.90;;;;;;5078547;28;20441;-82
2022/07/04 07:47:19;;;;;;;4.67;1.23;;;20.10;99.90;;;;;;5077337;28;20499;-80
2022/07/04 07:49:47;;;;;;;5.93;1.47;;;20.20;99.90;;;;;;5058969;28;20479;-79
2022/07/04 07:52:14;;;;;;;5.40;1.20;;;20.20;99.90;;;;;;5072493;28;20463;-81
2022/07/04 07:54:41;;;;;;;3.80;1.60;;;20.20;99.90;;;;;;5078453;28;20475;-79
2022/07/04 07:57:08;;;;;;;4.30;1.23;;;20.40;99.90;;;;;;5077930;28;20455;-81
2022/07/04 07:59:35;;;;;;;4.63;1.33;;;20.40;99.90;;;;;;5078685;28;21013;-80
2022/07/04 08:02:02;;;;;;;2.83;1.10;;;20.60;99.90;;;;;;5079266;28;21032;-80
2022/07/04 08:04:35;;;;;;;3.40;2.00;;;20.70;99.90;;;;;;5078345;28;20478;-80
2022/07/04 08:07:02;;;;;;;2.27;1.00;;;20.70;99.90;;;;;;5079825;28;20462;-79
2022/07/04 08:09:29;;;;;;;4.83;1.10;;;20.90;99.90;;;;;;5078395;28;21010;-81
2022/07/04 08:11:56;;;;;;;3.33;0.83;;;21.00;99.90;;;;;;5079506;28;20467;-79
2022/07/04 08:14:23;;;;;;;3.80;1.00;;;21.10;99.90;;;;;;5078064;28;20568;-79
2022/07/04 08:16:50;;;;;;;2.37;1.00;;;21.30;99.90;;;;;;5079638;28;20479;-78
2022/07/04 08:19:17;;;;;;;2.50;1.10;;;21.40;99.90;;;;;;5079259;28;20957;-78
2022/07/04 08:21:47;;;;;;;2.87;1.13;;;21.60;99.90;;;;;;5069885;28;20470;-79
2022/07/04 08:24:14;;;;;;;2.97;1.20;;;21.80;99.90;;;;;;5063001;28;20474;-80
2022/07/04 08:26:41;;;;;;;3.23;1.20;;;22.30;99.90;;;;;;5059590;28;20490;-80
2022/07/04 08:29:20;;;;;;;4.30;1.10;;;22.50;99.90;;;;;;5059823;28;20543;-82
2022/07/04 08:31:48;;;;;;;5.10;1.20;;;22.50;99.90;;;;;;5062741;28;20564;-82
2022/07/04 08:34:15;;;;;;;2.57;0.90;;;22.50;99.90;;;;;;5070921;28;20527;-82
2022/07/04 08:36:42;;;;;;;3.60;1.17;;;22.70;99.90;;;;;;5078925;28;20822;-79
2022/07/04 08:39:10;;;;;;;3.20;1.20;;;22.90;99.90;;;;;;5074740;28;20475;-82
2022/07/04 08:41:39;;;;;;;2.40;0.87;;;23.00;99.90;;;;;;5079570;28;20477;-80
2022/07/04 08:44:10;;;;;;;2.63;1.00;;;23.00;99.90;;;;;;5072747;28;20450;-81
2022/07/04 08:46:39;;;;;;;3.97;1.10;;;23.10;99.90;;;;;;5078978;28;20824;-81
2022/07/04 08:49:12;;;;;;;3.10;0.90;;;23.20;99.90;;;;;;5077209;28;20455;-80
2022/07/04 08:51:48;;;;;;;2.97;1.10;;;23.40;99.90;;;;;;5080434;28;20490;-80
2022/07/04 08:59:49;;;;;;;4.00;1.10;;;24.00;99.90;;;;;;5075988;28;20437;-82
2022/07/04 09:02:19;;;;;;;2.47;0.80;;;24.00;99.90;;;;;;5078340;28;20491;-77
2022/07/04 09:04:47;;;;;;;2.63;1.00;;;24.00;99.90;;;;;;5075078;28;20464;-77
2022/07/04 09:07:14;;;;;;;3.60;1.10;;;24.20;99.90;;;;;;5077139;28;20531;-81
2022/07/04 09:09:43;;;;;;;2.70;1.17;;;24.30;99.90;;;;;;5076832;28;20691;-78
2022/07/04 09:12:11;;;;;;;5.77;1.03;;;24.50;99.90;;;;;;5077777;28;20459;-80
2022/07/04 09:14:38;;;;;;;2.50;0.93;;;24.80;99.90;;;;;;5076663;28;20486;-78
2022/07/04 09:17:05;;;;;;;2.67;1.00;;;25.30;99.90;;;;;;5078288;28;20808;-81
2022/07/04 09:19:32;;;;;;;5.83;1.87;;;25.90;99.90;;;;;;5076655;28;20518;-81
2022/07/04 09:22:05;;;;;;;4.40;1.10;;;26.30;99.90;;;;;;5074671;28;20826;-80
2022/07/04 09:24:49;;;;;;;4.00;1.20;;;26.80;99.90;;;;;;5075674;28;20443;-78
2022/07/04 09:27:41;;;;;;;3.07;1.30;;;27.10;99.90;;;;;;5060790;28;20452;-81
2022/07/04 09:30:09;;;;;;;2.77;1.00;;;27.30;99.90;;;;;;5063111;28;20503;-81
2022/07/04 09:32:38;;;;;;;6.73;1.77;;;27.20;99.90;;;;;;5056747;28;21010;-81
2022/07/04 09:35:07;;;;;;;2.20;1.00;;;26.90;99.90;;;;;;5066787;28;20493;-79
2022/07/04 09:37:36;;;;;;;2.43;0.90;;;26.80;99.90;;;;;;5068995;28;20486;-78
2022/07/04 09:40:07;;;;;;;2.60;1.00;;;26.80;99.90;;;;;;5062570;28;20471;-81
2022/07/04 09:42:39;;;;;;;4.67;1.23;;;26.50;99.90;;;;;;5058465;28;20486;-79
2022/07/04 09:45:07;;;;;;;4.83;1.10;;;26.30;99.90;;;;;;5069185;28;20505;-80
2022/07/04 09:47:34;;;;;;;3.23;1.00;;;26.30;99.90;;;;;;5058656;28;20896;-80
2022/07/04 09:50:02;;;;;;;3.83;1.50;;;26.30;99.90;;;;;;5061356;28;20602;-80
2022/07/04 09:52:29;;;;;;;3.00;1.40;;;26.50;99.90;;;;;;5063641;28;20494;-78
2022/07/04 09:54:59;;;;;;;6.37;1.57;;;26.40;99.90;;;;;;5063948;28;20491;-78
2022/07/04 09:57:27;;;;;;;3.80;1.97;;;26.40;99.90;;;;;;5074144;28;20922;-79
2022/07/04 09:59:54;;;;;;;4.20;1.00;;;26.60;99.90;;;;;;5066957;28;20495;-78
2022/07/04 10:02:22;;;;;;;6.40;1.20;;;26.50;99.90;;;;;;5071007;28;20483;-79
2022/07/04 10:04:50;;;;;;;2.40;1.00;;;26.60;99.90;;;;;;5074044;28;20450;-78
2022/07/04 10:07:32;;;;;;;2.00;0.90;;;26.90;99.90;;;;;;5059032;28;20528;-77
2022/07/04 10:09:59;;;;;;;3.17;1.03;;;27.00;99.90;;;;;;5064273;28;20473;-79
2022/07/04 10:12:29;;;;;;;6.13;1.20;;;27.10;99.90;;;;;;5070273;28;20901;-79
2022/07/04 10:14:56;;;;;;;5.53;1.30;;;27.40;99.90;;;;;;5061376;28;20483;-78
2022/07/04 10:17:23;;;;;;;3.70;1.20;;;27.40;99.90;;;;;;5068179;28;20824;-77
2022/07/04 10:19:52;;;;;;;3.27;1.20;;;27.70;99.90;;;;;;5072157;28;20462;-80
2022/07/04 10:22:22;;;;;;;3.97;1.30;;;27.60;99.90;;;;;;5073062;28;20447;-82
2022/07/04 10:24:49;;;;;;;2.50;0.90;;;27.80;99.90;;;;;;5064571;28;20455;-79
2022/07/04 10:27:16;;;;;;;3.53;1.00;;;27.50;99.90;;;;;;5075508;28;20573;-79
2022/07/04 10:29:45;;;;;;;3.40;1.10;;;27.60;99.90;;;;;;5076082;28;20465;-79
2022/07/04 10:32:13;;;;;;;2.53;1.20;;;27.90;99.90;;;;;;5074118;28;20534;-80
2022/07/04 10:34:41;;;;;;;4.77;1.80;;;28.00;99.90;;;;;;5062227;28;20455;-79
2022/07/04 10:37:08;;;;;;;3.60;1.43;;;28.00;99.90;;;;;;5069576;28;20451;-80
2022/07/04 10:39:35;;;;;;;6.80;1.73;;;28.00;99.90;;;;;;5059111;28;20448;-82
2022/07/04 10:42:02;;;;;;;3.90;1.30;;;28.30;99.90;;;;;;5072882;28;20559;-82
2022/07/04 10:44:37;;;;;;;2.60;1.10;;;28.60;99.90;;;;;;5073956;28;20653;-79
2022/07/04 10:47:05;;;;;;;3.63;1.10;;;28.90;99.90;;;;;;5081045;28;20435;-80
2022/07/04 10:49:33;;;;;;;4.10;1.20;;;29.20;99.90;;;;;;5083923;28;20482;-80
2022/07/04 10:52:11;;;;;;;2.43;1.00;;;29.40;99.90;;;;;;5081391;28;20885;-80
2022/07/04 10:54:39;;;;;;;3.83;1.60;;;29.70;99.90;;;;;;5081611;28;20529;-81
2022/07/04 10:57:14;;;;;;;2.30;0.90;;;30.00;97.50;;;;;;5081982;28;20486;-83
2022/07/04 10:59:42;;;;;;;4.13;1.10;;;30.30;98.00;;;;;;5080218;28;20534;-79
2022/07/04 11:02:25;;;;;;;2.77;0.90;;;30.40;97.80;;;;;;5079317;28;21000;-81
2022/07/04 11:04:55;;;;;;;4.00;0.97;;;30.30;92.80;;;;;;5078758;28;20450;-80
2022/07/04 11:07:23;;;;;;;3.23;1.30;;;30.60;94.40;;;;;;5080805;28;20546;-80
2022/07/04 11:10:25;;;;;;;2.50;0.90;;;30.90;95.80;;;;;;5079312;28;20541;-81
2022/07/04 11:13:21;;;;;;;3.30;1.03;;;30.80;90.70;;;;;;5070846;28;20459;-81
2022/07/04 11:16:05;;;;;;;2.10;0.90;;;30.90;94.40;;;;;;5056079;28;20578;-78
2022/07/04 11:18:41;;;;;;;2.93;0.93;;;30.50;91.40;;;;;;5072745;28;20513;-79
2022/07/04 11:21:22;;;;;;;3.30;1.00;;;30.20;88.60;;;;;;5065492;28;20475;-80
2022/07/04 11:23:56;;;;;;;2.47;0.90;;;29.70;86.70;;;;;;5058225;28;20547;-80
2022/07/04 11:26:24;;;;;;;4.30;1.20;;;29.60;93.40;;;;;;5065156;28;20489;-78
2022/07/04 11:28:52;;;;;;;2.23;0.97;;;29.40;92.90;;;;;;5069649;28;20455;-78
2022/07/04 11:31:18;;;;;;;2.67;0.90;;;29.50;91.50;;;;;;5058263;28;20466;-77
2022/07/04 11:33:48;;;;;;;3.17;0.80;;;29.00;87.10;;;;;;5055471;28;20882;-79
2022/07/04 11:36:17;;;;;;;3.50;1.03;;;28.70;91.60;;;;;;5072026;28;20471;-79
2022/07/04 11:38:56;;;;;;;2.67;0.90;;;29.00;89.00;;;;;;5074827;28;20455;-80
2022/07/04 11:47:16;;;;;;;2.80;0.80;;;27.40;84.80;;;;;;5075765;28;20522;-76
2022/07/04 11:49:52;;;;;;;4.00;0.90;;;26.80;90.40;;;;;;5073754;28;20459;-77
2022/07/04 11:52:22;;;;;;;3.47;1.10;;;26.50;93.60;;;;;;5073344;28;20530;-77
2022/07/04 11:54:50;;;;;;;4.60;1.37;;;26.30;92.20;;;;;;5073307;28;20485;-77
2022/07/04 11:57:19;;;;;;;2.67;1.23;;;26.40;95.40;;;;;;5073841;28;20479;-77
2022/07/04 11:59:58;;;;;;;2.10;0.87;;;27.50;95.60;;;;;;5057648;28;20460;-77
2022/07/04 12:02:26;;;;;;;3.37;0.90;;;28.80;96.10;;;;;;5061747;28;20547;-79
2022/07/04 12:04:54;;;;;;;2.90;1.10;;;29.50;92.30;;;;;;5062967;28;20561;-75
2022/07/04 12:07:25;;;;;;;2.23;0.90;;;30.20;90.60;;;;;;5061640;28;20522;-74
2022/07/04 12:09:58;;;;;;;1.90;0.90;;;30.30;88.20;;;;;;5064631;28;20483;-72
2022/07/04 12:12:24;;;;;;;3.90;1.10;;;30.00;89.30;;;;;;5065382;28;20504;-77
2022/07/04 12:15:06;;;;;;;2.07;1.00;;;29.40;88.10;;;;;;5064725;28;20480;-78
2022/07/04 12:17:35;;;;;;;3.40;1.10;;;29.50;90.70;;;;;;5064532;28;20502;-78
2022/07/04 12:20:12;;;;;;;2.40;1.03;;;30.50;94.80;;;;;;5064346;28;20539;-77
2022/07/04 12:22:40;;;;;;;3.57;1.40;;;30.90;90.70;;;;;;5057037;28;20463;-77
2022/07/04 12:25:11;;;;;;;3.93;1.10;;;30.80;87.30;;;;;;5059176;28;20451;-76
2022/07/04 12:27:38;;;;;;;3.60;1.10;;;31.20;88.50;;;;;;5061634;28;20554;-76
2022/07/04 12:30:06;;;;;;;2.73;1.00;;;31.70;83.30;;;;;;5067460;28;20545;-75
2022/07/04 12:32:47;;;;;;;3.50;0.90;;;32.00;82.30;;;;;;5067486;28;20443;-76
2022/07/04 12:35:39;;;;;;;3.50;1.50;;;31.20;82.20;;;;;;5063298;28;20520;-76
2022/07/04 12:38:07;;;;;;;2.50;0.97;;;30.00;77.40;;;;;;5065440;28;20482;-76
2022/07/04 12:40:35;;;;;;;2.30;1.07;;;29.50;80.20;;;;;;5063474;28;20479;-76
2022/07/04 12:43:02;;;;;;;3.07;1.13;;;28.90;85.00;;;;;;5068682;28;20549;-76
2022/07/04 12:45:43;;;;;;;4.43;1.10;;;28.30;86.50;;;;;;5072084;28;20914;-76
2022/07/04 12:48:16;;;;;;;3.63;1.50;;;28.00;91.50;;;;;;5068256;28;20817;-74
2022/07/04 12:50:45;;;;;;;4.47;1.07;;;28.70;86.40;;;;;;5061412;28;20471;-77
2022/07/04 12:53:12;;;;;;;3.00;1.03;;;29.90;91.00;;;;;;5070570;28;21002;-76
2022/07/04 12:55:41;;;;;;;2.83;1.10;;;30.00;90.40;;;;;;5054269;28;20480;-76
2022/07/04 12:58:09;;;;;;;2.30;0.90;;;29.70;90.90;;;;;;5058675;28;20481;-76
2022/07/04 13:00:36;;;;;;;3.00;1.20;;;30.20;89.80;;;;;;5061967;28;20479;-76
2022/07/04 13:03:04;;;;;;;2.83;1.00;;;31.00;87.20;;;;;;5070601;28;20538;-77
2022/07/04 13:05:31;;;;;;;4.83;1.10;;;31.80;91.60;;;;;;5063304;28;20455;-76
2022/07/04 13:07:59;;;;;;;3.80;1.20;;;32.30;81.50;;;;;;5054401;28;20960;-76
2022/07/04 13:10:26;;;;;;;3.23;1.00;;;32.40;77.20;;;;;;5049473;28;20539;-76
2022/07/04 13:12:52;;;;;;;4.97;1.37;;;32.60;83.90;;;;;;5058339;28;20617;-76